createdAt,value
2023-04-09T00:00:29.097Z,23.90
2023-04-09T00:03:17.229Z,22.20
2023-04-09T00:05:45.196Z,21.40
2023-04-09T00:08:12.908Z,23.10
2023-04-09T00:10:40.692Z,23.70
2023-04-09T00:13:08.431Z,21.90
2023-04-09T00:15:36.298Z,23.60
2023-04-09T00:18:04.098Z,22.70
2023-04-09T00:20:31.793Z,23.40
2023-04-09T00:22:59.534Z,24.70
2023-04-09T00:25:28.743Z,23.40
2023-04-09T00:27:56.755Z,20.60
2023-04-09T00:30:24.595Z,21.40
2023-04-09T00:32:52.430Z,22.80
2023-04-09T00:35:20.553Z,22.20
2023-04-09T00:37:48.312Z,23.20
2023-04-09T00:40:16.309Z,23.40
2023-04-09T00:42:44.059Z,23.10
2023-04-09T00:45:11.901Z,22.70
2023-04-09T00:47:40.011Z,22.60
2023-04-09T00:50:08.128Z,22.30
2023-04-09T00:52:36.242Z,23.50
2023-04-09T00:55:05.250Z,23.90
2023-04-09T00:57:33.006Z,23.10
2023-04-09T01:00:00.999Z,23.70
2023-04-09T01:02:29.048Z,21.30
2023-04-09T01:04:57.414Z,22.40
2023-04-09T01:07:37.032Z,22.80
2023-04-09T01:10:19.812Z,22.60
2023-04-09T01:12:57.400Z,24.10
2023-04-09T01:15:31.341Z,24.30
2023-04-09T01:18:02.130Z,23.70
2023-04-09T01:20:40.624Z,21.40
2023-04-09T01:23:16.461Z,21.80
2023-04-09T01:25:49.215Z,23.40
2023-04-09T01:28:26.148Z,21.70
2023-04-09T01:30:57.666Z,23.60
2023-04-09T01:33:25.709Z,24.40
2023-04-09T01:35:54.077Z,22.30
2023-04-09T01:38:23.155Z,21.70
2023-04-09T01:40:51.028Z,22.80
2023-04-09T01:43:19.183Z,23.00
2023-04-09T01:45:47.443Z,22.70
2023-04-09T01:48:16.135Z,24.40
2023-04-09T01:50:43.996Z,23.30
2023-04-09T01:53:12.172Z,23.00
2023-04-09T01:55:39.924Z,21.50
2023-04-09T01:58:07.737Z,22.70
2023-04-09T02:00:38.351Z,21.90
2023-04-09T02:03:22.301Z,23.00
2023-04-09T02:05:55.769Z,23.60
2023-04-09T02:08:24.302Z,23.40
2023-04-09T02:10:58.836Z,23.70
2023-04-09T02:13:27.765Z,23.30
2023-04-09T02:15:56.534Z,22.30
2023-04-09T02:18:25.258Z,22.00
2023-04-09T02:20:53.696Z,24.00
2023-04-09T02:23:22.033Z,24.40
2023-04-09T02:25:50.037Z,23.60
2023-04-09T02:28:17.799Z,23.80
2023-04-09T02:30:45.529Z,23.80
2023-04-09T02:33:13.462Z,21.50
2023-04-09T02:35:41.265Z,22.60
2023-04-09T02:38:14.641Z,24.70
2023-04-09T02:40:42.463Z,23.60
2023-04-09T02:43:10.406Z,22.60
2023-04-09T02:45:38.259Z,22.70
2023-04-09T02:48:06.039Z,21.70
2023-04-09T02:50:33.755Z,21.30
2023-04-09T02:53:01.640Z,23.00
2023-04-09T02:55:29.477Z,23.80
2023-04-09T02:57:57.144Z,23.30
2023-04-09T03:00:24.896Z,23.50
2023-04-09T03:02:52.907Z,21.80
2023-04-09T03:05:23.461Z,21.60
2023-04-09T03:07:51.268Z,21.00
2023-04-09T03:10:19.090Z,24.30
2023-04-09T03:12:47.960Z,22.90
2023-04-09T03:15:15.826Z,24.00
2023-04-09T03:17:43.563Z,22.60
2023-04-09T03:20:11.427Z,21.50
2023-04-09T03:22:39.642Z,21.90
2023-04-09T03:25:07.779Z,21.90
2023-04-09T03:27:35.741Z,22.10
2023-04-09T03:30:03.892Z,23.30
2023-04-09T03:32:31.602Z,22.60
2023-04-09T03:34:59.466Z,21.40
2023-04-09T03:37:27.458Z,22.30
2023-04-09T03:39:55.283Z,22.90
2023-04-09T03:42:23.071Z,23.10
2023-04-09T03:44:53.363Z,22.70
2023-04-09T03:47:21.297Z,22.40
2023-04-09T03:49:49.104Z,22.30
2023-04-09T03:52:16.914Z,22.70
2023-04-09T03:54:44.744Z,22.00
2023-04-09T03:57:12.648Z,21.90
2023-04-09T03:59:40.480Z,22.90
2023-04-09T04:02:08.333Z,22.50
2023-04-09T04:04:36.388Z,21.80
2023-04-09T04:07:04.132Z,26.50
2023-04-09T04:09:31.866Z,28.20
2023-04-09T04:12:02.356Z,30.40
2023-04-09T04:14:30.264Z,27.70
2023-04-09T04:16:58.041Z,23.40
2023-04-09T04:19:25.829Z,22.30
2023-04-09T04:21:53.595Z,22.40
2023-04-09T04:24:21.467Z,22.80
2023-04-09T04:26:49.308Z,24.50
2023-04-09T04:29:17.138Z,21.70
2023-04-09T04:31:44.962Z,23.80
2023-04-09T04:34:12.775Z,22.50
2023-04-09T04:36:40.559Z,22.00
2023-04-09T04:39:08.253Z,22.70
2023-04-09T04:41:36.026Z,23.00
2023-04-09T04:44:03.974Z,22.60
2023-04-09T04:46:31.807Z,22.50
2023-04-09T04:48:59.579Z,21.30
2023-04-09T04:51:27.835Z,21.50
2023-04-09T04:53:55.699Z,21.90
2023-04-09T04:56:23.440Z,22.00
2023-04-09T04:58:51.469Z,23.50
2023-04-09T05:01:19.484Z,21.50
2023-04-09T05:03:47.375Z,23.10
2023-04-09T05:06:15.372Z,21.10
2023-04-09T05:08:43.118Z,22.80
2023-04-09T05:11:15.209Z,23.20
2023-04-09T05:13:43.057Z,23.40
2023-04-09T05:16:16.608Z,23.80
2023-04-09T05:18:44.506Z,21.60
2023-04-09T05:21:12.357Z,22.00
2023-04-09T05:23:40.156Z,22.70
2023-04-09T05:26:08.016Z,24.80
2023-04-09T05:28:35.841Z,23.40
2023-04-09T05:31:03.579Z,22.10
2023-04-09T05:33:35.428Z,22.40
2023-04-09T05:36:03.265Z,23.40
2023-04-09T05:38:31.247Z,22.10
2023-04-09T05:40:59.673Z,23.70
2023-04-09T05:43:27.618Z,23.80
2023-04-09T05:45:55.359Z,21.90
2023-04-09T05:48:23.181Z,22.00
2023-04-09T05:50:55.534Z,21.00
2023-04-09T05:53:23.639Z,21.10
2023-04-09T05:55:51.451Z,20.40
2023-04-09T05:58:19.841Z,23.30
2023-04-09T06:00:47.695Z,22.40
2023-04-09T06:03:15.574Z,21.30
2023-04-09T06:05:45.001Z,20.60
2023-04-09T06:08:14.152Z,20.60
2023-04-09T06:10:41.839Z,21.60
2023-04-09T06:13:10.144Z,21.80
2023-04-09T06:15:38.714Z,23.40
2023-04-09T06:18:06.925Z,21.70
2023-04-09T06:20:34.825Z,21.40
2023-04-09T06:23:02.619Z,20.70
2023-04-09T06:25:30.677Z,21.40
2023-04-09T06:27:58.492Z,22.50
2023-04-09T06:30:26.432Z,21.90
2023-04-09T06:32:55.371Z,21.00
2023-04-09T06:35:23.395Z,22.70
2023-04-09T06:37:51.373Z,20.70
2023-04-09T06:40:20.743Z,19.90
2023-04-09T06:42:50.601Z,21.30
2023-04-09T06:45:18.435Z,24.30
2023-04-09T06:47:46.260Z,22.20
2023-04-09T06:50:14.042Z,24.00
2023-04-09T06:52:42.042Z,22.40
2023-04-09T06:55:09.867Z,20.00
2023-04-09T06:57:38.783Z,18.50
2023-04-09T07:00:06.984Z,21.30
2023-04-09T07:02:35.243Z,22.50
2023-04-09T07:05:04.151Z,22.20
2023-04-09T07:07:31.927Z,21.70
2023-04-09T07:09:59.778Z,20.80
2023-04-09T07:12:28.227Z,21.40
2023-04-09T07:14:59.631Z,20.00
2023-04-09T07:17:27.441Z,18.90
2023-04-09T07:19:55.421Z,19.70
2023-04-09T07:22:23.799Z,20.00
2023-04-09T07:24:55.203Z,19.60
2023-04-09T07:27:24.059Z,17.70
2023-04-09T07:29:54.212Z,17.20
2023-04-09T07:32:22.014Z,17.60
2023-04-09T07:34:53.025Z,19.50
2023-04-09T07:37:21.201Z,19.40
2023-04-09T07:39:49.608Z,19.00
2023-04-09T07:42:17.439Z,17.70
2023-04-09T07:44:45.121Z,16.80
2023-04-09T07:47:13.089Z,17.70
2023-04-09T07:49:41.097Z,23.70
2023-04-09T07:52:08.897Z,18.70
2023-04-09T07:54:36.657Z,19.20
2023-04-09T07:57:04.391Z,18.10
2023-04-09T07:59:32.423Z,17.30
2023-04-09T08:02:00.559Z,19.70
2023-04-09T08:04:29.840Z,18.20
2023-04-09T08:06:57.649Z,18.70
2023-04-09T08:09:26.226Z,18.70
2023-04-09T08:11:54.185Z,16.70
2023-04-09T08:14:22.036Z,18.40
2023-04-09T08:16:50.554Z,17.60
2023-04-09T08:19:20.479Z,19.40
2023-04-09T08:21:51.426Z,19.70
2023-04-09T08:24:19.350Z,19.00
2023-04-09T08:26:47.332Z,18.00
2023-04-09T08:29:15.167Z,18.30
2023-04-09T08:31:43.240Z,18.00
2023-04-09T08:34:11.142Z,19.10
2023-04-09T08:36:41.849Z,19.20
2023-04-09T08:39:09.629Z,19.50
2023-04-09T08:41:41.850Z,20.30
2023-04-09T08:44:09.693Z,18.80
2023-04-09T08:46:37.617Z,18.70
2023-04-09T08:49:05.366Z,20.20
2023-04-09T08:51:33.186Z,19.50
2023-04-09T08:54:04.002Z,21.00
2023-04-09T08:56:32.523Z,19.20
2023-04-09T08:59:00.261Z,18.10
2023-04-09T09:01:29.231Z,18.90
2023-04-09T09:03:57.441Z,22.10
2023-04-09T09:06:28.028Z,20.70
2023-04-09T09:09:03.705Z,21.30
2023-04-09T09:11:31.734Z,19.10
2023-04-09T09:14:04.017Z,19.10
2023-04-09T09:16:34.774Z,20.20
2023-04-09T09:19:02.807Z,20.40
2023-04-09T09:21:30.718Z,20.60
2023-04-09T09:23:58.618Z,18.60
2023-04-09T09:26:28.810Z,18.50
2023-04-09T09:29:17.080Z,18.30
2023-04-09T09:31:49.615Z,18.20
2023-04-09T09:34:17.791Z,18.70
2023-04-09T09:36:46.167Z,17.10
2023-04-09T09:39:14.707Z,15.60
2023-04-09T09:41:42.944Z,16.30
2023-04-09T09:44:11.626Z,16.40
2023-04-09T09:46:41.517Z,17.50
2023-04-09T09:49:09.641Z,16.80
2023-04-09T09:51:39.410Z,16.70
2023-04-09T09:54:07.830Z,15.50
2023-04-09T09:56:36.197Z,16.30
2023-04-09T09:59:13.080Z,14.00
2023-04-09T10:01:41.235Z,16.60
2023-04-09T10:04:13.616Z,14.90
2023-04-09T10:06:45.126Z,16.40
2023-04-09T10:09:13.127Z,15.90
2023-04-09T10:11:45.657Z,18.00
2023-04-09T10:14:13.784Z,16.00
2023-04-09T10:16:42.062Z,18.20
2023-04-09T10:19:14.229Z,17.60
2023-04-09T10:21:45.315Z,17.40
2023-04-09T10:24:13.206Z,16.30
2023-04-09T10:26:41.798Z,16.70
2023-04-09T10:29:13.954Z,16.00
2023-04-09T10:31:55.246Z,15.30
2023-04-09T10:34:24.725Z,17.50
2023-04-09T10:36:53.721Z,16.70
2023-04-09T10:39:21.723Z,15.90
2023-04-09T10:41:49.978Z,16.10
2023-04-09T10:44:27.984Z,15.10
2023-04-09T10:46:56.142Z,16.20
2023-04-09T10:49:25.007Z,15.90
2023-04-09T10:51:53.804Z,17.30
2023-04-09T10:54:41.401Z,15.10
2023-04-09T10:57:09.151Z,16.10
2023-04-09T10:59:38.318Z,16.60
2023-04-09T11:02:07.847Z,16.30
2023-04-09T11:04:35.739Z,16.30
2023-04-09T11:07:06.580Z,15.60
2023-04-09T11:09:37.382Z,15.10
2023-04-09T11:12:05.140Z,15.10
2023-04-09T11:14:33.517Z,14.80
2023-04-09T11:17:03.161Z,15.00
2023-04-09T11:19:33.463Z,16.70
2023-04-09T11:22:04.877Z,15.90
2023-04-09T11:24:42.524Z,15.10
2023-04-09T11:27:10.509Z,15.20
2023-04-09T11:29:38.566Z,15.50
2023-04-09T11:32:06.513Z,15.40
2023-04-09T11:34:34.165Z,16.50
2023-04-09T11:37:07.120Z,15.60
2023-04-09T11:39:37.955Z,14.60
2023-04-09T11:42:05.824Z,14.10
2023-04-09T11:44:33.573Z,14.10
2023-04-09T11:47:01.541Z,15.00
2023-04-09T11:49:29.327Z,15.60
2023-04-09T11:51:58.529Z,14.40
2023-04-09T11:54:31.576Z,14.20
2023-04-09T11:57:03.694Z,13.70
2023-04-09T11:59:31.450Z,13.80
2023-04-09T12:01:59.288Z,15.10
2023-04-09T12:04:27.179Z,14.70
2023-04-09T12:06:58.989Z,14.10
2023-04-09T12:09:26.995Z,13.70
2023-04-09T12:11:54.801Z,12.60
2023-04-09T12:14:22.829Z,12.40
2023-04-09T12:16:51.353Z,12.50
2023-04-09T12:19:22.869Z,13.70
2023-04-09T12:21:55.872Z,13.20
2023-04-09T12:24:24.432Z,14.10
2023-04-09T12:26:52.311Z,13.40
2023-04-09T12:29:21.006Z,13.50
2023-04-09T12:31:48.901Z,14.70
2023-04-09T12:34:16.609Z,12.80
2023-04-09T12:36:44.304Z,12.60
2023-04-09T12:39:12.024Z,12.90
2023-04-09T12:41:39.740Z,12.70
2023-04-09T12:44:08.048Z,12.20
2023-04-09T12:46:36.365Z,12.20
2023-04-09T12:49:04.299Z,12.10
2023-04-09T12:51:32.835Z,12.60
2023-04-09T12:54:00.831Z,11.20
2023-04-09T12:56:29.823Z,12.20
2023-04-09T12:58:57.745Z,11.30
2023-04-09T13:01:25.538Z,11.50
2023-04-09T13:03:53.839Z,11.90
2023-04-09T13:06:23.041Z,11.50
2023-04-09T13:08:50.887Z,13.00
2023-04-09T13:11:18.670Z,11.30
2023-04-09T13:13:47.249Z,11.20
2023-04-09T13:16:14.976Z,10.60
2023-04-09T13:18:42.820Z,10.80
2023-04-09T13:21:10.847Z,11.10
2023-04-09T13:23:38.947Z,11.00
2023-04-09T13:26:07.126Z,10.60
2023-04-09T13:28:34.891Z,10.80
2023-04-09T13:31:03.242Z,11.00
2023-04-09T13:33:31.250Z,10.30
2023-04-09T13:35:59.142Z,10.50
2023-04-09T13:38:27.075Z,10.40
2023-04-09T13:40:55.010Z,9.50
2023-04-09T13:43:28.030Z,9.20
2023-04-09T13:45:57.542Z,9.90
2023-04-09T13:48:25.641Z,9.50
2023-04-09T13:50:53.553Z,9.70
2023-04-09T13:53:23.858Z,10.00
2023-04-09T13:55:51.872Z,9.80
2023-04-09T13:58:22.158Z,10.00
2023-04-09T14:00:49.974Z,9.80
2023-04-09T14:03:18.216Z,10.50
2023-04-09T14:05:46.067Z,9.80
2023-04-09T14:08:13.808Z,9.80
2023-04-09T14:10:41.538Z,11.10
2023-04-09T14:13:12.011Z,9.20
2023-04-09T14:15:39.991Z,9.10
2023-04-09T14:18:07.994Z,9.70
2023-04-09T14:20:36.305Z,8.70
2023-04-09T14:23:04.158Z,10.30
2023-04-09T14:25:32.103Z,10.70
2023-04-09T14:28:00.260Z,9.90
2023-04-09T14:30:28.028Z,9.20
2023-04-09T14:32:55.865Z,9.80
2023-04-09T14:35:23.775Z,10.80
2023-04-09T14:37:51.782Z,9.80
2023-04-09T14:40:19.638Z,9.50
2023-04-09T14:42:48.175Z,9.70
2023-04-09T14:45:16.466Z,10.50
2023-04-09T14:47:44.247Z,9.60
2023-04-09T14:50:12.895Z,9.70
2023-04-09T14:52:41.050Z,9.70
2023-04-09T14:55:12.632Z,9.70
2023-04-09T14:57:41.085Z,9.40
2023-04-09T15:00:09.579Z,9.70
2023-04-09T15:02:38.650Z,10.50
2023-04-09T15:05:07.340Z,9.80
2023-04-09T15:07:35.329Z,10.50
2023-04-09T15:10:03.112Z,9.10
2023-04-09T15:12:31.773Z,9.00
2023-04-09T15:14:59.827Z,10.10
2023-04-09T15:17:29.057Z,10.10
2023-04-09T15:19:56.807Z,9.40
2023-04-09T15:22:24.611Z,9.80
2023-04-09T15:24:53.180Z,10.30
2023-04-09T15:27:20.976Z,9.70
2023-04-09T15:29:48.859Z,9.50
2023-04-09T15:32:16.643Z,10.20
2023-04-09T15:34:44.761Z,9.60
2023-04-09T15:37:12.547Z,9.80
2023-04-09T15:39:40.585Z,9.20
2023-04-09T15:42:10.271Z,9.70
2023-04-09T15:44:39.448Z,9.60
2023-04-09T15:47:07.126Z,9.90
2023-04-09T15:49:35.680Z,9.80
2023-04-09T15:52:03.706Z,9.30
2023-04-09T15:54:31.514Z,9.60
2023-04-09T15:56:59.327Z,9.50
2023-04-09T15:59:27.337Z,8.90
2023-04-09T16:01:55.376Z,10.10
2023-04-09T16:04:23.231Z,10.60
2023-04-09T16:06:51.329Z,13.60
2023-04-09T16:09:19.111Z,9.20
2023-04-09T16:11:46.802Z,9.00
2023-04-09T16:14:14.519Z,10.40
2023-04-09T16:16:46.990Z,10.30
2023-04-09T16:19:14.886Z,12.70
2023-04-09T16:21:44.733Z,12.00
2023-04-09T16:24:12.842Z,9.90
2023-04-09T16:26:41.138Z,9.10
2023-04-09T16:29:09.046Z,8.80
2023-04-09T16:31:41.934Z,10.10
2023-04-09T16:34:09.757Z,8.40
2023-04-09T16:36:37.538Z,9.40
2023-04-09T16:39:05.687Z,9.20
2023-04-09T16:41:34.981Z,8.90
2023-04-09T16:44:04.573Z,9.30
2023-04-09T16:46:32.340Z,8.70
2023-04-09T16:49:00.334Z,8.90
2023-04-09T16:51:28.366Z,9.70
2023-04-09T16:53:56.214Z,9.50
2023-04-09T16:56:23.941Z,10.60
2023-04-09T16:58:52.423Z,10.30
2023-04-09T17:01:20.557Z,10.70
2023-04-09T17:03:49.172Z,10.30
2023-04-09T17:06:17.011Z,10.60
2023-04-09T17:08:45.382Z,11.00
2023-04-09T17:11:16.369Z,15.70
2023-04-09T17:13:44.395Z,19.50
2023-04-09T17:16:12.403Z,13.70
2023-04-09T17:18:40.136Z,10.70
2023-04-09T17:21:07.978Z,9.10
2023-04-09T17:23:36.299Z,9.40
2023-04-09T17:26:04.072Z,9.40
2023-04-09T17:28:31.931Z,9.90
2023-04-09T17:30:59.760Z,9.80
2023-04-09T17:33:27.514Z,8.70
2023-04-09T17:35:57.290Z,8.80
2023-04-09T17:38:27.018Z,9.60
2023-04-09T17:40:54.881Z,9.10
2023-04-09T17:43:22.809Z,11.30
2023-04-09T17:45:50.682Z,11.50
2023-04-09T17:48:18.584Z,11.30
2023-04-09T17:50:46.780Z,10.80
2023-04-09T17:53:14.504Z,11.90
2023-04-09T17:55:46.548Z,11.20
2023-04-09T17:58:14.835Z,9.50
2023-04-09T18:00:43.388Z,9.90
2023-04-09T18:03:14.509Z,9.60
2023-04-09T18:05:43.025Z,11.00
2023-04-09T18:08:10.957Z,13.60
2023-04-09T18:10:38.708Z,11.80
2023-04-09T18:13:06.554Z,11.80
2023-04-09T18:15:34.354Z,12.40
2023-04-09T18:18:02.128Z,12.80
2023-04-09T18:20:29.934Z,12.00
2023-04-09T18:22:57.760Z,13.10
2023-04-09T18:25:25.559Z,11.20
2023-04-09T18:27:53.328Z,11.40
2023-04-09T18:30:21.114Z,10.10
2023-04-09T18:32:48.926Z,14.90
2023-04-09T18:35:17.483Z,17.40
2023-04-09T18:37:45.512Z,13.90
2023-04-09T18:40:17.362Z,12.30
2023-04-09T18:42:45.234Z,11.00
2023-04-09T18:45:12.997Z,11.50
2023-04-09T18:47:40.891Z,11.10
2023-04-09T18:50:08.892Z,12.40
2023-04-09T18:52:38.890Z,12.50
2023-04-09T18:55:06.761Z,12.00
2023-04-09T18:57:34.590Z,11.90
2023-04-09T19:00:03.911Z,11.60
2023-04-09T19:02:32.189Z,10.90
2023-04-09T19:05:00.636Z,12.40
2023-04-09T19:07:28.697Z,12.20
2023-04-09T19:09:56.484Z,12.60
2023-04-09T19:12:25.109Z,12.30
2023-04-09T19:14:53.783Z,12.70
2023-04-09T19:17:22.514Z,14.90
2023-04-09T19:19:50.403Z,14.80
2023-04-09T19:22:18.146Z,13.30
2023-04-09T19:24:45.998Z,11.30
2023-04-09T19:27:14.094Z,11.50
2023-04-09T19:29:41.862Z,10.90
2023-04-09T19:32:11.750Z,11.10
2023-04-09T19:34:39.495Z,13.00
2023-04-09T19:37:07.524Z,12.30
2023-04-09T19:39:35.631Z,12.80
2023-04-09T19:42:03.439Z,12.80
2023-04-09T19:44:31.254Z,12.90
2023-04-09T19:46:58.968Z,11.60
2023-04-09T19:49:27.327Z,10.80
2023-04-09T19:51:55.201Z,12.40
2023-04-09T19:54:22.967Z,12.00
2023-04-09T19:56:50.636Z,13.30
2023-04-09T19:59:18.373Z,12.00
2023-04-09T20:01:48.022Z,12.30
2023-04-09T20:04:15.932Z,12.80
2023-04-09T20:06:44.116Z,14.20
2023-04-09T20:09:14.450Z,21.10
2023-04-09T20:11:42.193Z,29.00
2023-04-09T20:14:12.220Z,28.30
2023-04-09T20:16:40.001Z,26.80
2023-04-09T20:19:07.816Z,18.90
2023-04-09T20:21:35.633Z,13.90
2023-04-09T20:24:03.978Z,14.10
2023-04-09T20:26:31.752Z,16.60
2023-04-09T20:28:59.592Z,14.30
2023-04-09T20:31:27.875Z,14.90
2023-04-09T20:33:55.745Z,14.60
2023-04-09T20:36:23.497Z,14.70
2023-04-09T20:38:51.520Z,15.50
2023-04-09T20:41:19.518Z,15.70
2023-04-09T20:43:47.329Z,18.40
2023-04-09T20:46:15.288Z,18.80
2023-04-09T20:48:43.215Z,17.30
2023-04-09T20:51:11.499Z,18.10
2023-04-09T20:53:39.259Z,21.10
2023-04-09T20:56:08.639Z,21.90
2023-04-09T20:58:36.844Z,16.20
2023-04-09T21:01:06.737Z,16.30
2023-04-09T21:03:36.095Z,15.60
2023-04-09T21:06:04.366Z,14.40
2023-04-09T21:08:32.421Z,14.30
2023-04-09T21:11:00.379Z,14.00
2023-04-09T21:13:28.444Z,14.10
2023-04-09T21:15:57.053Z,14.10
2023-04-09T21:18:24.878Z,15.30
2023-04-09T21:20:52.662Z,16.50
2023-04-09T21:23:20.507Z,16.60
2023-04-09T21:25:48.258Z,15.30
2023-04-09T21:28:15.965Z,13.60
2023-04-09T21:30:43.805Z,13.60
2023-04-09T21:33:11.532Z,16.30
2023-04-09T21:35:39.283Z,16.30
2023-04-09T21:38:07.365Z,16.70
2023-04-09T21:40:35.153Z,16.80
2023-04-09T21:43:02.820Z,15.90
2023-04-09T21:45:30.669Z,15.20
2023-04-09T21:47:58.534Z,14.80
2023-04-09T21:50:26.377Z,13.80
2023-04-09T21:52:54.052Z,15.00
2023-04-09T21:55:21.920Z,15.00
2023-04-09T21:57:49.715Z,14.80
2023-04-09T22:00:17.745Z,16.00
2023-04-09T22:02:46.096Z,14.80
2023-04-09T22:05:14.051Z,13.80
2023-04-09T22:07:42.472Z,14.60
2023-04-09T22:10:10.474Z,15.80
2023-04-09T22:12:38.206Z,15.40
2023-04-09T22:15:06.415Z,15.40
2023-04-09T22:17:34.345Z,14.80
2023-04-09T22:20:02.696Z,13.80
2023-04-09T22:22:30.505Z,16.10
2023-04-09T22:24:58.359Z,16.20
2023-04-09T22:27:26.330Z,16.30
2023-04-09T22:29:54.134Z,17.10
2023-04-09T22:32:21.960Z,16.50
2023-04-09T22:34:49.692Z,16.10
2023-04-09T22:37:17.593Z,16.00
2023-04-09T22:39:45.370Z,18.10
2023-04-09T22:42:13.513Z,18.50
2023-04-09T22:44:41.598Z,16.70
2023-04-09T22:47:09.426Z,15.20
2023-04-09T22:49:37.603Z,15.40
2023-04-09T22:52:05.770Z,16.30
2023-04-09T22:54:33.581Z,15.60
2023-04-09T22:57:01.938Z,15.80
2023-04-09T22:59:39.009Z,17.30
2023-04-09T23:02:07.948Z,15.30
2023-04-09T23:04:35.912Z,14.30
2023-04-09T23:07:03.770Z,13.30
2023-04-09T23:09:32.042Z,12.70
2023-04-09T23:11:59.779Z,11.70
2023-04-09T23:14:27.506Z,12.00
2023-04-09T23:16:55.314Z,10.40
2023-04-09T23:19:23.056Z,10.80
2023-04-09T23:21:50.733Z,12.70
2023-04-09T23:24:19.297Z,14.10
2023-04-09T23:26:47.132Z,13.30
2023-04-09T23:29:15.046Z,14.00
2023-04-09T23:31:42.993Z,13.90
2023-04-09T23:34:10.812Z,15.70
2023-04-09T23:36:38.719Z,16.50
2023-04-09T23:39:06.470Z,19.60
2023-04-09T23:41:34.223Z,20.10
2023-04-09T23:44:02.040Z,18.30
2023-04-09T23:46:29.847Z,15.20
2023-04-09T23:48:57.784Z,15.00
2023-04-09T23:51:26.151Z,17.30
2023-04-09T23:53:54.074Z,18.60
2023-04-09T23:56:23.116Z,18.40
2023-04-09T23:58:50.886Z,16.70
